Wilmington, OH

12:02 PM EST on February 19, 2017 (GMT -0500)
2.2 N Wilmington | | Change Station

Elev 1053 ft 39.47 °N, 83.84 °W | Updated 11 minutes ago

Overcast
Overcast
47.7 °F
Feels Like 46 °F
N
4.0
Wind Variable Wind from West
Gusts 9.0 mph

Today
High -- | Low -- °F
--% Chance of Precip.
Yesterday
High -- | Low -- °F
Precip. -- in
Pressure 30.14 in
Visibility 3.0 miles
Clouds Overcast 500 ft
Windchill 46 °F
Dew Point 46 °F
Humidity 94%
Rainfall 0.00 in
Snow Depth Not available.
7:21 AM 6:16 PM
Last Quarter, 42% visible
METAR KILN 191654Z AUTO 27006KT 3SM BR OVC005 09/08 A3010 RMK AO2 SLP205 T00890078
Pressure 30.14 in
Visibility 3.0 miles
Clouds Overcast 500 ft
Windchill 46 °F
Dew Point 46 °F
Humidity 94%
Rainfall 0.00 in
Snow Depth Not available.
7:21 AM 6:16 PM
Last Quarter, 42% visible
METAR KILN 191654Z AUTO 27006KT 3SM BR OVC005 09/08 A3010 RMK AO2 SLP205 T00890078

Get Your Daily Forecast Email!

Thanks for signing up!

Be on the lookout for a verification email in your inbox.

You'll start receiving the daily forecast at 8 AM.

×

10-Day Weather Forecast

Almanac

Astronomy

Feb. 19, 2017 Rise Set
Actual Time
Civil Twilight
Nautical Twilight
Astronomical Twilight
Moon
Length of Visible Light
Length of Day
Tomorrow will be .
, % of the Moon is Illuminated

Today's Extremes

State Highs State Lows

Community

WunderPhotos

Upload Photos

1,962,540 photos uploaded!

WunderBlog® & News

Nearby

Air Quality

  Air Quality AQ Index Pollutant
Not available.

Snow Depth

Station Depth Elevation

Earthquake Activity

City Distance Mag. Time & Date
Minimum magnitude displayed is 2.5.

Coastal Water Temperatures

Place Temperature

Stations

Nearby Weather Stations

Station Location Temp. Windchill Dew Point Humidity Wind Precip. Elev Updated Type
                   

Watches & Warnings

There are currently no watches in effect.